Time;durP1;ratioP1;P1;durP2;ratioP2;P2;SDS_P1;SDS_P2;PMS_P1;PMS_P2;Temp;Humidity;BMP_temperature;BMP_pressure;BME280_temperature;BME280_humidity;BME280_pressure;Samples;Min_cycle;Max_cycle;Signal;HPM_P1;HPM_P2
2021/05/10 00:00:53;;;;;;;3.00;1.23;;;;;;;25.05;33.90;96064.00;4981268;28;20022;-77
2021/05/10 00:03:22;;;;;;;1.20;0.90;;;;;;;24.92;33.19;96073.38;4964512;28;20092;-77
2021/05/10 00:05:49;;;;;;;1.55;0.90;;;;;;;25.10;32.69;96071.66;4979297;28;20649;-77
2021/05/10 00:08:14;;;;;;;1.95;0.90;;;;;;;25.16;32.97;96074.75;4980023;28;20311;-77
2021/05/10 00:10:42;;;;;;;1.55;0.85;;;;;;;25.12;32.80;96058.75;4980595;28;20038;-78
2021/05/10 00:13:09;;;;;;;0.85;0.80;;;;;;;25.03;32.78;96051.03;4979240;28;20048;-77
2021/05/10 00:15:35;;;;;;;1.45;0.93;;;;;;;25.10;32.43;96055.66;4980700;28;20120;-78
2021/05/10 00:18:02;;;;;;;1.33;1.00;;;;;;;25.12;32.82;96045.44;4997233;28;20156;-77
2021/05/10 00:20:30;;;;;;;1.10;0.98;;;;;;;25.15;32.75;96047.34;4988836;28;20037;-77
2021/05/10 00:22:55;;;;;;;1.67;1.58;;;;;;;25.07;34.07;96039.66;4961021;28;20026;-78
2021/05/10 00:25:21;;;;;;;2.45;1.10;;;;;;;24.60;36.40;95992.03;4944769;28;20053;-78
2021/05/10 00:27:46;;;;;;;1.02;1.00;;;;;;;24.35;38.40;95932.47;4960642;28;20066;-77
2021/05/10 00:30:12;;;;;;;1.85;1.10;;;;;;;24.53;37.38;95951.28;4975462;28;20085;-78
2021/05/10 00:32:37;;;;;;;1.92;1.08;;;;;;;24.49;36.93;95928.06;4977194;28;20039;-78
2021/05/10 00:35:03;;;;;;;3.53;1.20;;;;;;;24.60;37.39;95914.13;4982638;28;20131;-77
2021/05/10 00:37:28;;;;;;;1.98;1.23;;;;;;;24.68;35.70;95910.38;4996214;28;20542;-77
2021/05/10 00:39:54;;;;;;;3.63;1.23;;;;;;;24.61;36.86;95915.66;4997131;28;20026;-78
2021/05/10 00:42:19;;;;;;;3.00;1.13;;;;;;;24.57;37.86;95915.59;5014800;28;20527;-77
2021/05/10 00:44:44;;;;;;;3.10;1.10;;;;;;;24.58;38.16;95916.38;4964367;28;20066;-77
2021/05/10 00:47:12;;;;;;;2.35;1.20;;;;;;;24.53;39.69;95911.38;4980820;28;20421;-77
2021/05/10 00:49:37;;;;;;;2.45;1.13;;;;;;;24.30;39.53;95909.63;4995650;28;20044;-78
2021/05/10 00:52:03;;;;;;;2.00;1.30;;;;;;;24.15;39.62;95907.94;5009549;28;20021;-78
2021/05/10 00:54:29;;;;;;;1.20;1.10;;;;;;;23.99;39.42;95906.25;4999486;28;20029;-77
2021/05/10 00:56:54;;;;;;;2.47;1.20;;;;;;;24.18;38.30;95917.84;4982587;28;20384;-78
2021/05/10 00:59:20;;;;;;;2.47;0.95;;;;;;;24.23;38.33;95910.31;4979820;28;20505;-77
2021/05/10 01:01:45;;;;;;;1.70;1.30;;;;;;;23.89;39.15;95914.88;4987337;28;20088;-78
2021/05/10 01:04:10;;;;;;;1.63;1.20;;;;;;;23.61;39.13;95900.06;4986600;28;20025;-77
2021/05/10 01:06:36;;;;;;;1.35;1.25;;;;;;;23.52;38.52;95896.91;5026193;28;20396;-77
2021/05/10 01:09:01;;;;;;;1.90;1.20;;;;;;;23.47;38.36;95903.28;5008826;28;20033;-77
2021/05/10 01:11:27;;;;;;;1.98;1.00;;;;;;;23.42;38.55;95906.25;4999332;28;20465;-77
2021/05/10 01:13:52;;;;;;;1.15;1.05;;;;;;;23.26;38.70;95897.72;4993390;28;20120;-77
2021/05/10 01:16:18;;;;;;;1.25;1.00;;;;;;;23.15;39.03;95902.84;4977405;28;20060;-78
2021/05/10 01:18:45;;;;;;;1.90;1.02;;;;;;;23.10;38.96;95906.59;4975436;28;20117;-77
2021/05/10 01:21:10;;;;;;;1.75;1.05;;;;;;;23.05;38.81;95903.44;4980751;28;20029;-78
2021/05/10 01:23:36;;;;;;;1.88;1.00;;;;;;;23.05;38.85;95909.53;5012760;28;20038;-77
2021/05/10 01:26:01;;;;;;;2.58;1.02;;;;;;;22.78;39.73;95911.38;4993276;28;20104;-77
2021/05/10 01:28:27;;;;;;;1.58;0.90;;;;;;;22.57;39.31;95922.41;4977092;28;20558;-77
2021/05/10 01:30:52;;;;;;;1.95;1.08;;;;;;;22.56;39.28;95915.56;5013613;28;20052;-78
2021/05/10 01:33:19;;;;;;;2.83;1.27;;;;;;;22.53;39.25;95917.00;5015337;28;20038;-77
2021/05/10 01:35:47;;;;;;;2.20;0.90;;;;;;;22.76;38.90;95935.59;5015042;28;20388;-78
2021/05/10 01:38:13;;;;;;;2.80;0.93;;;;;;;22.84;39.16;95925.84;5000913;28;20026;-78
2021/05/10 01:40:39;;;;;;;2.20;1.00;;;;;;;22.88;39.22;95926.69;5009605;28;20030;-77
2021/05/10 01:43:04;;;;;;;2.25;1.00;;;;;;;22.97;39.02;95932.53;4997316;28;20354;-77
2021/05/10 01:45:30;;;;;;;1.33;1.00;;;;;;;23.04;38.61;95923.91;4969621;28;20489;-77
2021/05/10 01:48:07;;;;;;;1.83;1.17;;;;;;;22.74;38.96;95923.78;5008424;28;20120;-78
2021/05/10 01:50:33;;;;;;;1.80;0.80;;;;;;;23.02;38.32;95914.78;5007157;28;20041;-78
2021/05/10 01:52:59;;;;;;;2.15;1.00;;;;;;;23.19;39.43;95924.94;5002348;28;20037;-77
2021/05/10 01:55:25;;;;;;;2.03;1.00;;;;;;;23.11;38.39;95925.94;5031551;28;20392;-78
2021/05/10 01:57:53;;;;;;;2.72;1.00;;;;;;;23.24;38.18;95924.63;4998364;28;20033;-77
2021/05/10 02:00:25;;;;;;;1.30;0.80;;;;;;;23.18;38.15;95929.47;4997672;28;20670;-78
2021/05/10 02:02:51;;;;;;;3.50;1.10;;;;;;;23.54;37.40;95929.19;4998237;28;20032;-77
2021/05/10 02:05:21;;;;;;;1.30;0.82;;;;;;;23.52;37.15;95931.47;4975237;28;20120;-78
2021/05/10 02:07:53;;;;;;;1.83;1.20;;;;;;;23.65;36.86;95930.13;5013300;28;20142;-78
2021/05/10 02:10:33;;;;;;;1.65;1.25;;;;;;;23.57;37.36;95928.50;5007747;28;20045;-78
2021/05/10 02:13:07;;;;;;;2.20;1.17;;;;;;;23.72;37.22;95942.75;5012854;28;20025;-77
2021/05/10 02:15:34;;;;;;;2.50;1.10;;;;;;;23.93;36.51;95939.59;5004158;28;20312;-77
2021/05/10 02:18:00;;;;;;;1.70;0.88;;;;;;;23.75;36.83;95934.03;4987396;28;20083;-77
2021/05/10 02:20:27;;;;;;;1.45;1.00;;;;;;;23.75;36.25;95937.47;4978595;28;20036;-78
2021/05/10 02:23:01;;;;;;;1.42;1.00;;;;;;;23.66;36.57;95922.91;5013546;28;20044;-78
2021/05/10 02:25:28;;;;;;;1.58;1.00;;;;;;;23.60;35.72;95917.16;4996833;28;20550;-77
2021/05/10 02:27:54;;;;;;;1.35;1.00;;;;;;;23.78;35.96;95917.34;5013270;28;20044;-78
2021/05/10 02:30:21;;;;;;;1.90;0.80;;;;;;;23.61;35.79;95923.97;4980288;28;20319;-77
2021/05/10 02:32:47;;;;;;;2.03;1.13;;;;;;;23.82;35.54;95912.13;5013014;28;20034;-77
2021/05/10 02:35:13;;;;;;;2.03;1.20;;;;;;;23.59;34.84;95909.53;4979998;28;20499;-77
2021/05/10 02:37:39;;;;;;;1.35;1.00;;;;;;;23.95;35.23;95910.75;5006280;28;20445;-77
2021/05/10 02:40:06;;;;;;;1.30;1.10;;;;;;;23.95;35.33;95916.06;4979767;28;20116;-77
2021/05/10 02:42:31;;;;;;;1.48;1.05;;;;;;;23.85;34.93;95906.06;4989876;28;20133;-77
2021/05/10 02:44:57;;;;;;;1.27;1.02;;;;;;;23.91;34.31;95899.31;5011567;28;20132;-78
2021/05/10 02:47:22;;;;;;;1.33;1.00;;;;;;;24.09;34.73;95904.84;5001349;28;20441;-78
2021/05/10 02:49:48;;;;;;;3.90;1.23;;;;;;;23.88;34.26;95895.47;4978385;28;20388;-77
2021/05/10 02:52:13;;;;;;;1.90;1.40;;;;;;;24.10;34.66;95903.72;4992825;28;20030;-78
2021/05/10 02:54:38;;;;;;;1.20;1.10;;;;;;;23.93;35.29;95910.34;5006942;28;20040;-78
2021/05/10 02:57:04;;;;;;;1.35;1.15;;;;;;;24.09;34.75;95924.22;5012644;28;20391;-77
2021/05/10 02:59:29;;;;;;;1.35;1.05;;;;;;;24.05;34.82;95909.34;4996275;28;20061;-77
2021/05/10 03:01:55;;;;;;;2.05;1.10;;;;;;;24.11;34.42;95923.84;5013040;28;20030;-78
2021/05/10 03:04:20;;;;;;;1.42;0.85;;;;;;;24.20;34.53;95919.03;5013303;28;20146;-78
2021/05/10 03:06:45;;;;;;;2.90;1.05;;;;;;;24.39;34.36;95923.38;5013479;28;20025;-77
2021/05/10 03:09:11;;;;;;;2.67;1.35;;;;;;;24.38;34.50;95943.13;5006722;28;20057;-77
2021/05/10 03:11:36;;;;;;;2.10;1.17;;;;;;;24.40;34.51;95956.84;4975598;28;20022;-77
2021/05/10 03:14:02;;;;;;;3.03;1.20;;;;;;;24.34;34.92;95957.53;5007316;28;20291;-77
2021/05/10 03:16:27;;;;;;;1.98;1.45;;;;;;;24.37;35.11;95973.53;4969450;28;20345;-78
2021/05/10 03:18:53;;;;;;;1.35;1.10;;;;;;;24.12;35.16;96011.25;4985536;28;20040;-78
2021/05/10 03:21:18;;;;;;;1.73;1.08;;;;;;;23.51;36.94;96082.13;5002249;28;20037;-78
2021/05/10 03:23:44;;;;;;;1.52;1.30;;;;;;;23.52;37.30;96081.00;4995986;28;20029;-77
2021/05/10 03:26:09;;;;;;;2.10;1.40;;;;;;;23.59;37.85;96116.78;5015968;28;20091;-78
2021/05/10 03:28:34;;;;;;;1.77;1.02;;;;;;;23.65;37.73;96126.78;4999359;28;20033;-78
2021/05/10 03:31:00;;;;;;;2.60;1.10;;;;;;;23.37;38.19;96137.66;4992812;28;20053;-78
2021/05/10 03:33:25;;;;;;;2.45;1.30;;;;;;;23.45;38.26;96149.97;4980827;28;20037;-78
2021/05/10 03:35:50;;;;;;;1.92;1.50;;;;;;;23.28;39.05;96159.16;4995719;28;20034;-78
2021/05/10 03:38:16;;;;;;;1.40;1.20;;;;;;;23.11;40.96;96157.69;4997141;28;20037;-78
2021/05/10 03:40:41;;;;;;;2.40;1.40;;;;;;;22.86;43.86;96146.59;5011244;28;20064;-79
2021/05/10 03:43:07;;;;;;;1.58;1.40;;;;;;;22.75;44.73;96130.44;4999953;28;20084;-77
2021/05/10 03:45:35;;;;;;;2.10;1.70;;;;;;;22.69;45.08;96141.66;5012297;28;20605;-78
2021/05/10 03:48:00;;;;;;;1.83;1.45;;;;;;;22.54;45.02;96141.38;5012078;28;20144;-78
2021/05/10 03:50:26;;;;;;;2.70;1.42;;;;;;;22.54;46.11;96152.00;4997180;28;20140;-78
2021/05/10 03:52:51;;;;;;;2.78;1.60;;;;;;;22.11;46.98;96151.03;5011029;28;20079;-78
2021/05/10 03:55:19;;;;;;;2.58;1.50;;;;;;;22.15;46.81;96162.50;5015359;28;20172;-77
2021/05/10 03:57:45;;;;;;;2.58;1.50;;;;;;;22.12;47.37;96159.75;5016448;28;20537;-77
2021/05/10 04:00:12;;;;;;;2.17;1.52;;;;;;;22.00;47.01;96150.00;4991121;28;20041;-78
2021/05/10 04:02:38;;;;;;;2.17;1.60;;;;;;;21.93;47.87;96163.09;4999280;28;20091;-77
2021/05/10 04:10:39;;;;;;;2.00;1.60;;;;;;;21.89;47.37;96161.13;5011461;28;20092;-78
2021/05/10 04:15:48;;;;;;;2.13;1.48;;;;;;;21.82;47.00;96166.28;4988679;28;20031;-77
2021/05/10 04:18:13;;;;;;;2.22;1.85;;;;;;;21.78;46.89;96169.94;5007677;28;20037;-77
2021/05/10 04:20:39;;;;;;;3.20;1.65;;;;;;;21.77;45.83;96169.19;5009212;28;20030;-77
2021/05/10 04:23:05;;;;;;;2.83;1.30;;;;;;;21.72;46.57;96166.78;4993356;28;20033;-78
2021/05/10 04:25:30;;;;;;;3.42;1.50;;;;;;;21.80;47.12;96173.81;4999027;28;20034;-78
2021/05/10 04:27:56;;;;;;;1.83;1.63;;;;;;;21.47;49.26;96171.44;5032790;28;20037;-77
2021/05/10 04:30:21;;;;;;;3.30;1.50;;;;;;;21.66;47.15;96160.97;4986555;28;20085;-78
2021/05/10 04:32:47;;;;;;;1.98;1.77;;;;;;;21.64;47.09;96165.06;4998900;28;20108;-78
2021/05/10 04:35:12;;;;;;;2.25;1.58;;;;;;;21.51;45.45;96181.03;5014773;28;20041;-77
2021/05/10 04:37:38;;;;;;;1.58;0.98;;;;;;;21.66;45.62;96179.53;4997785;28;20444;-78
2021/05/10 04:40:04;;;;;;;1.73;1.10;;;;;;;21.72;44.12;96187.22;4998773;28;20069;-78
2021/05/10 04:42:30;;;;;;;1.75;1.23;;;;;;;21.76;44.64;96188.81;5007603;28;20026;-78
2021/05/10 04:44:55;;;;;;;2.72;1.25;;;;;;;21.81;43.71;96191.22;5006329;28;20060;-77
2021/05/10 04:47:20;;;;;;;1.88;1.20;;;;;;;21.84;43.46;96206.44;4986326;28;20129;-77
2021/05/10 04:49:46;;;;;;;1.35;1.25;;;;;;;21.91;43.73;96197.91;4998452;28;20032;-77
2021/05/10 04:52:11;;;;;;;2.63;1.20;;;;;;;21.72;43.97;96203.13;4998156;28;20135;-78
2021/05/10 04:54:36;;;;;;;1.40;1.17;;;;;;;21.78;43.23;96207.03;5014598;28;20032;-78
2021/05/10 04:57:05;;;;;;;1.40;1.25;;;;;;;21.78;42.87;96213.13;5014434;28;20084;-77
2021/05/10 04:59:31;;;;;;;2.60;1.27;;;;;;;21.89;43.06;96208.84;5013833;28;20533;-77
2021/05/10 05:01:56;;;;;;;1.98;1.30;;;;;;;22.00;43.13;96214.41;5012894;28;20112;-77
2021/05/10 05:04:22;;;;;;;3.15;1.20;;;;;;;21.75;44.32;96208.50;5031627;28;20175;-78
2021/05/10 05:06:47;;;;;;;1.92;1.13;;;;;;;21.92;43.65;96207.41;4990859;28;20033;-77
2021/05/10 05:09:12;;;;;;;1.63;1.27;;;;;;;22.03;43.42;96207.66;4990234;28;20825;-77
2021/05/10 05:11:38;;;;;;;1.95;1.15;;;;;;;22.01;43.28;96209.88;5006515;28;20047;-77
2021/05/10 05:14:03;;;;;;;1.13;1.10;;;;;;;21.66;44.02;96208.66;4995271;28;20484;-78
2021/05/10 05:16:31;;;;;;;2.97;1.52;;;;;;;21.85;44.27;96217.84;4996584;28;20025;-78
2021/05/10 05:18:56;;;;;;;6.25;1.30;;;;;;;21.99;43.72;96225.38;5013867;28;20037;-77
2021/05/10 05:21:21;;;;;;;4.43;1.23;;;;;;;21.81;43.53;96216.97;4981031;28;20021;-77
2021/05/10 05:23:47;;;;;;;1.70;1.08;;;;;;;21.94;43.37;96215.78;4980611;28;20040;-78
2021/05/10 05:26:12;;;;;;;2.75;1.00;;;;;;;21.97;43.96;96214.31;5014489;28;20049;-77
2021/05/10 05:28:37;;;;;;;2.88;1.17;;;;;;;21.97;44.12;96235.50;4974433;28;20162;-78
2021/05/10 05:31:05;;;;;;;3.00;1.02;;;;;;;21.78;43.69;96234.31;5001092;28;20137;-78
2021/05/10 05:33:31;;;;;;;3.13;1.20;;;;;;;21.95;43.88;96238.53;4998124;28;20056;-77
2021/05/10 05:35:56;;;;;;;3.42;1.33;;;;;;;21.96;44.50;96240.06;4995503;28;20033;-78
2021/05/10 05:38:22;;;;;;;2.00;1.00;;;;;;;21.88;44.50;96233.81;4999954;28;20033;-78
2021/05/10 05:40:50;;;;;;;2.00;1.30;;;;;;;21.66;45.30;96223.78;4997484;28;20025;-78
2021/05/10 05:43:16;;;;;;;1.40;1.30;;;;;;;21.80;44.76;96216.19;4972522;28;20559;-78
2021/05/10 05:45:42;;;;;;;2.90;1.20;;;;;;;21.98;43.93;96235.19;4990568;28;20037;-78
2021/05/10 05:48:10;;;;;;;2.75;1.08;;;;;;;21.89;43.66;96245.94;5013091;28;20025;-77
2021/05/10 05:50:36;;;;;;;1.30;1.02;;;;;;;22.11;44.67;96245.72;4980790;28;20021;-77
2021/05/10 05:53:02;;;;;;;2.45;1.40;;;;;;;22.24;43.91;96255.91;5006686;28;20065;-77
2021/05/10 05:55:28;;;;;;;2.13;0.82;;;;;;;22.24;44.15;96240.00;4997499;28;20033;-77
2021/05/10 05:57:54;;;;;;;2.08;1.10;;;;;;;22.26;43.38;96242.28;4996790;28;20075;-77
2021/05/10 06:00:20;;;;;;;1.55;0.98;;;;;;;22.07;44.35;96235.78;4996581;28;20072;-77
2021/05/10 06:02:45;;;;;;;1.23;1.05;;;;;;;22.00;43.48;96248.88;4997308;28;20041;-78
2021/05/10 06:05:12;;;;;;;3.38;1.05;;;;;;;22.06;43.95;96252.81;4997359;28;20049;-77
2021/05/10 06:07:39;;;;;;;1.52;0.82;;;;;;;22.07;43.87;96250.91;4980990;28;20029;-78
2021/05/10 06:10:05;;;;;;;2.15;1.02;;;;;;;22.29;43.42;96257.53;5013610;28;20041;-77
2021/05/10 06:12:30;;;;;;;3.90;1.70;;;;;;;22.31;42.69;96270.44;5007206;28;20495;-78
2021/05/10 06:14:55;;;;;;;1.17;1.08;;;;;;;22.36;42.99;96278.16;5005599;28;20493;-78
2021/05/10 06:17:21;;;;;;;2.47;1.00;;;;;;;22.33;43.73;96287.56;4994003;28;20392;-78
2021/05/10 06:19:46;;;;;;;3.45;1.35;;;;;;;22.24;43.74;96293.03;4947914;28;20423;-78
2021/05/10 06:22:11;;;;;;;2.08;1.00;;;;;;;22.28;43.57;96281.72;5002106;28;20041;-77
2021/05/10 06:24:39;;;;;;;1.50;1.00;;;;;;;22.16;44.00;96283.34;4969608;28;20029;-77
2021/05/10 06:27:05;;;;;;;1.65;1.10;;;;;;;22.01;43.94;96290.16;4988488;28;20473;-78
2021/05/10 06:29:31;;;;;;;3.55;1.33;;;;;;;21.91;44.80;96288.00;4980449;28;20038;-77
2021/05/10 06:31:59;;;;;;;2.33;1.00;;;;;;;21.56;45.48;96296.56;5012172;28;20117;-77
2021/05/10 06:34:24;;;;;;;1.63;0.77;;;;;;;21.80;44.85;96311.59;4995544;28;20044;-77
2021/05/10 06:36:49;;;;;;;1.80;1.25;;;;;;;21.91;44.20;96311.88;5012302;28;20029;-77
2021/05/10 06:39:14;;;;;;;2.50;1.13;;;;;;;21.75;44.97;96319.78;4993162;28;20064;-76
2021/05/10 06:41:40;;;;;;;2.40;1.20;;;;;;;21.79;45.78;96323.28;4995595;28;20083;-77
2021/05/10 06:44:06;;;;;;;1.98;1.05;;;;;;;21.77;44.93;96314.16;4994222;28;20095;-78
2021/05/10 06:46:31;;;;;;;2.03;1.20;;;;;;;22.00;44.92;96314.34;4989578;28;20030;-77
2021/05/10 06:48:56;;;;;;;2.00;1.10;;;;;;;22.01;44.81;96321.22;4982537;28;20449;-77
2021/05/10 06:51:22;;;;;;;1.77;1.10;;;;;;;21.83;45.15;96321.53;4960101;28;20120;-77
2021/05/10 06:53:48;;;;;;;2.78;1.20;;;;;;;21.85;45.42;96319.31;4976180;28;20516;-77
2021/05/10 06:56:13;;;;;;;2.00;1.20;;;;;;;21.75;45.58;96330.38;5029655;28;20064;-77
2021/05/10 06:58:38;;;;;;;3.05;1.33;;;;;;;21.88;45.06;96328.44;4969018;28;20034;-76
2021/05/10 07:01:07;;;;;;;2.03;1.10;;;;;;;21.58;45.16;96315.53;4995762;28;20057;-77
2021/05/10 07:03:32;;;;;;;1.88;0.80;;;;;;;21.81;44.65;96329.00;4979898;28;20037;-77
2021/05/10 07:05:57;;;;;;;2.33;0.90;;;;;;;21.94;44.48;96329.75;4979448;28;20029;-77
2021/05/10 07:08:23;;;;;;;2.20;1.00;;;;;;;21.99;44.64;96326.09;4977857;28;20239;-76
2021/05/10 07:10:50;;;;;;;1.67;0.98;;;;;;;21.85;45.02;96331.78;5012794;28;20034;-77
2021/05/10 07:13:16;;;;;;;3.08;0.90;;;;;;;21.86;44.85;96341.25;4979520;28;20323;-77
2021/05/10 07:15:42;;;;;;;1.65;0.75;;;;;;;21.85;44.90;96355.63;4980059;28;20385;-77
2021/05/10 07:18:09;;;;;;;2.70;0.68;;;;;;;21.85;44.12;96356.41;4961047;28;20037;-77
2021/05/10 07:20:37;;;;;;;1.65;0.98;;;;;;;21.82;44.32;96370.31;4976978;28;20065;-77
2021/05/10 07:23:03;;;;;;;1.13;0.60;;;;;;;21.84;44.76;96368.09;4980321;28;20029;-77
2021/05/10 07:25:28;;;;;;;2.38;0.98;;;;;;;21.24;45.60;96354.66;4979461;28;20327;-77
2021/05/10 07:27:54;;;;;;;2.45;0.85;;;;;;;21.64;44.93;96369.06;4979304;28;20053;-77
2021/05/10 07:30:20;;;;;;;0.57;0.47;;;;;;;21.44;45.79;96373.38;4995595;28;20099;-77
2021/05/10 07:32:45;;;;;;;1.10;0.70;;;;;;;21.53;44.86;96368.00;5005476;28;20037;-78
2021/05/10 07:35:11;;;;;;;1.65;0.50;;;;;;;21.65;44.65;96375.91;4995745;28;20031;-77
2021/05/10 07:37:37;;;;;;;0.50;0.40;;;;;;;21.79;44.48;96388.78;5006860;28;20033;-76
2021/05/10 07:40:06;;;;;;;1.25;0.80;;;;;;;21.73;45.14;96376.84;5011017;28;20043;-76
2021/05/10 07:42:35;;;;;;;1.10;0.57;;;;;;;21.85;44.76;96360.94;4977882;28;20068;-77
2021/05/10 07:45:00;;;;;;;1.92;0.80;;;;;;;21.73;46.36;96372.34;4991858;28;20093;-77
2021/05/10 07:47:26;;;;;;;0.73;0.60;;;;;;;21.70;46.13;96368.47;4989451;28;20117;-76
2021/05/10 07:49:51;;;;;;;0.70;0.60;;;;;;;21.51;45.38;96382.34;4974052;28;20034;-77
2021/05/10 07:52:17;;;;;;;0.55;0.30;;;;;;;21.15;45.13;96391.06;4993388;28;20049;-76
2021/05/10 07:54:42;;;;;;;0.65;0.20;;;;;;;21.01;45.48;96386.13;4991293;28;20025;-77
2021/05/10 07:57:08;;;;;;;0.85;0.30;;;;;;;20.87;46.26;96375.88;4967169;28;20120;-77
2021/05/10 07:59:36;;;;;;;0.52;0.30;;;;;;;20.94;46.53;96380.63;4971891;28;20029;-77
2021/05/10 08:02:02;;;;;;;1.23;0.30;;;;;;;20.99;46.51;96393.63;5007885;28;20566;-77
2021/05/10 08:04:28;;;;;;;0.65;0.25;;;;;;;21.01;46.80;96399.34;4982931;28;20062;-77
2021/05/10 08:06:54;;;;;;;4.13;1.13;;;;;;;20.66;46.46;96412.97;4989414;28;20440;-77
2021/05/10 08:09:20;;;;;;;0.77;0.40;;;;;;;20.90;46.89;96400.88;4995983;28;20021;-77
2021/05/10 08:11:46;;;;;;;2.17;0.40;;;;;;;21.08;47.04;96396.16;4973532;28;20132;-77
2021/05/10 08:14:11;;;;;;;0.88;0.40;;;;;;;20.81;47.06;96390.41;4992262;28;20129;-77
2021/05/10 08:16:37;;;;;;;0.82;0.30;;;;;;;21.14;47.29;96385.00;5003682;28;20049;-77
2021/05/10 08:19:02;;;;;;;0.52;0.22;;;;;;;21.36;46.44;96393.59;4987840;28;20305;-76
2021/05/10 08:21:28;;;;;;;0.30;0.30;;;;;;;21.50;46.20;96399.31;4996276;28;20122;-77
2021/05/10 08:23:53;;;;;;;0.35;0.20;;;;;;;21.83;44.93;96402.88;4988640;28;20113;-76
2021/05/10 08:26:19;;;;;;;0.82;0.30;;;;;;;21.89;45.74;96409.50;5014118;28;20038;-77
2021/05/10 08:28:44;;;;;;;1.67;0.40;;;;;;;21.87;44.90;96430.28;4978837;28;20388;-77
2021/05/10 08:31:09;;;;;;;1.48;0.40;;;;;;;21.71;45.38;96448.72;4995993;28;20036;-77
2021/05/10 08:33:34;;;;;;;0.50;0.50;;;;;;;21.59;45.08;96464.66;4994865;28;20034;-77
2021/05/10 08:36:00;;;;;;;0.40;0.40;;;;;;;21.54;45.88;96462.22;5001317;28;20389;-77
2021/05/10 08:38:25;;;;;;;0.35;0.30;;;;;;;21.55;46.45;96450.53;4977187;28;20033;-76
2021/05/10 08:40:53;;;;;;;0.65;0.30;;;;;;;21.83;45.26;96438.13;4991027;28;20017;-77
2021/05/10 08:43:20;;;;;;;0.40;0.30;;;;;;;21.96;45.95;96440.72;5007782;28;20041;-76
2021/05/10 08:45:53;;;;;;;0.45;0.45;;;;;;;22.43;44.61;96456.81;5013630;28;20030;-77
2021/05/10 08:48:18;;;;;;;1.10;0.30;;;;;;;22.61;43.28;96462.56;5011124;28;20072;-76
2021/05/10 08:50:43;;;;;;;0.60;0.30;;;;;;;21.93;44.86;96467.91;4979878;28;20390;-78
2021/05/10 08:53:11;;;;;;;0.85;0.30;;;;;;;22.15;44.68;96472.69;4987059;28;20101;-77
2021/05/10 08:55:39;;;;;;;0.22;0.20;;;;;;;22.02;44.00;96482.56;4997891;28;20044;-77
2021/05/10 08:58:07;;;;;;;1.35;0.30;;;;;;;22.15;43.63;96496.56;4968274;28;20030;-77
2021/05/10 09:00:32;;;;;;;1.00;0.30;;;;;;;21.61;44.34;96510.91;5004624;28;20018;-77
2021/05/10 09:03:12;;;;;;;1.13;0.35;;;;;;;20.91;45.61;96517.00;4994137;28;20037;-77
2021/05/10 09:05:57;;;;;;;0.40;0.20;;;;;;;20.91;45.83;96516.22;4991226;28;20033;-77
2021/05/10 09:08:22;;;;;;;1.55;0.30;;;;;;;21.21;47.35;96513.41;4993398;28;20365;-77
2021/05/10 09:11:08;;;;;;;0.60;0.38;;;;;;;20.66;49.31;96520.66;4969829;28;20060;-78
2021/05/10 09:13:41;;;;;;;1.13;0.30;;;;;;;20.70;49.71;96516.25;5005964;28;20129;-77
2021/05/10 09:16:07;;;;;;;0.50;0.40;;;;;;;20.35;50.60;96525.25;5007639;28;20064;-77
2021/05/10 09:18:33;;;;;;;0.82;0.22;;;;;;;20.37;50.66;96520.44;4974231;28;20037;-77
2021/05/10 09:21:17;;;;;;;0.50;0.30;;;;;;;20.02;50.13;96504.06;5010677;28;20037;-77
2021/05/10 09:23:43;;;;;;;0.30;0.30;;;;;;;20.56;49.07;96492.72;4996475;28;20033;-77
2021/05/10 09:26:11;;;;;;;1.20;0.70;;;;;;;20.28;49.40;96498.56;4996253;28;20108;-77
2021/05/10 09:28:39;;;;;;;2.17;0.32;;;;;;;20.43;48.92;96507.00;4965873;28;20029;-77
2021/05/10 09:31:12;;;;;;;0.52;0.30;;;;;;;20.48;48.60;96504.16;5001098;28;20101;-76
2021/05/10 09:33:45;;;;;;;1.50;0.20;;;;;;;20.44;48.62;96500.63;4992862;28;20069;-77
2021/05/10 09:36:32;;;;;;;1.05;0.40;;;;;;;20.48;48.79;96493.59;4986182;28;20471;-77
2021/05/10 09:38:57;;;;;;;0.60;0.30;;;;;;;20.70;48.53;96506.47;5008209;28;20557;-77
2021/05/10 09:41:23;;;;;;;0.77;0.30;;;;;;;20.68;49.60;96511.31;4990745;28;20121;-77
2021/05/10 09:44:00;;;;;;;1.10;0.35;;;;;;;20.42;49.67;96516.78;5011067;28;20034;-78
2021/05/10 09:46:40;;;;;;;1.75;0.30;;;;;;;20.16;50.71;96530.22;4966901;28;20615;-78
2021/05/10 09:49:06;;;;;;;1.05;0.82;;;;;;;20.32;50.52;96538.34;5004795;28;20034;-77
2021/05/10 09:51:32;;;;;;;0.50;0.40;;;;;;;20.47;50.79;96531.69;5006879;28;20048;-77
2021/05/10 09:53:57;;;;;;;1.08;0.30;;;;;;;20.34;51.23;96544.88;5011149;28;20037;-78
2021/05/10 09:56:32;;;;;;;0.32;0.32;;;;;;;20.08;51.80;96552.19;4988101;28;20132;-77
2021/05/10 09:59:01;;;;;;;1.13;0.40;;;;;;;20.18;52.11;96557.88;4977655;28;20034;-77
2021/05/10 10:01:43;;;;;;;0.50;0.40;;;;;;;20.07;52.42;96563.88;4983379;28;20026;-78
2021/05/10 10:04:09;;;;;;;0.57;0.40;;;;;;;20.31;52.87;96569.31;4991638;28;20036;-77
2021/05/10 10:06:34;;;;;;;1.67;0.40;;;;;;;20.17;53.78;96558.22;4988885;28;20041;-77
2021/05/10 10:08:59;;;;;;;0.30;0.20;;;;;;;20.34;53.33;96563.38;4978256;28;20481;-77
2021/05/10 10:11:26;;;;;;;0.63;0.32;;;;;;;20.20;53.71;96566.28;4967805;28;20025;-77
2021/05/10 10:13:53;;;;;;;1.25;0.30;;;;;;;20.32;53.88;96570.88;4994391;28;20100;-78
2021/05/10 10:16:21;;;;;;;1.20;0.98;;;;;;;19.88;54.61;96573.00;4965353;28;20105;-78
2021/05/10 10:18:48;;;;;;;0.40;0.30;;;;;;;20.13;53.61;96570.50;4980269;28;20065;-78
2021/05/10 10:21:15;;;;;;;1.67;0.73;;;;;;;20.26;54.89;96577.44;4974012;28;20068;-78
2021/05/10 10:23:41;;;;;;;0.45;0.30;;;;;;;20.17;55.10;96572.19;4988390;28;20417;-78
2021/05/10 10:26:10;;;;;;;0.82;0.47;;;;;;;20.08;56.18;96568.06;4995118;28;20196;-78
2021/05/10 10:28:38;;;;;;;1.38;0.52;;;;;;;20.19;54.64;96567.34;4990045;28;20029;-78
2021/05/10 10:31:29;;;;;;;0.70;0.60;;;;;;;20.00;56.36;96574.97;4992961;28;20041;-78
2021/05/10 10:34:08;;;;;;;1.60;0.77;;;;;;;19.86;56.95;96559.34;5007342;28;20037;-78
2021/05/10 10:36:39;;;;;;;1.42;0.40;;;;;;;20.02;56.04;96570.13;4984590;28;20029;-78
2021/05/10 10:39:14;;;;;;;1.60;0.68;;;;;;;19.98;55.86;96575.28;4959003;28;20026;-79
2021/05/10 10:42:05;;;;;;;0.63;0.50;;;;;;;19.83;55.86;96586.38;4979797;28;20037;-79
2021/05/10 10:44:40;;;;;;;0.85;0.52;;;;;;;20.22;55.01;96605.59;4998870;28;20036;-78
2021/05/10 10:47:07;;;;;;;0.98;0.77;;;;;;;20.25;54.68;96618.16;4987633;28;20057;-78
2021/05/10 10:49:37;;;;;;;0.98;0.60;;;;;;;19.90;55.75;96602.50;4982068;28;20034;-78
2021/05/10 10:52:15;;;;;;;0.57;0.40;;;;;;;19.82;56.00;96616.53;4984643;28;20112;-78
2021/05/10 10:54:41;;;;;;;1.30;0.68;;;;;;;20.12;54.85;96629.78;4980892;28;20125;-78
2021/05/10 10:57:06;;;;;;;0.63;0.30;;;;;;;19.89;55.45;96624.72;4999333;28;20029;-78
2021/05/10 10:59:32;;;;;;;0.52;0.43;;;;;;;20.14;55.73;96632.88;4979423;28;20037;-79
2021/05/10 11:02:13;;;;;;;1.13;0.40;;;;;;;20.20;54.97;96634.22;4998394;28;20022;-79
2021/05/10 11:04:39;;;;;;;0.93;0.80;;;;;;;19.55;56.64;96636.97;4976346;28;20040;-77
2021/05/10 11:07:05;;;;;;;0.63;0.50;;;;;;;19.98;55.89;96622.84;4997021;28;20030;-78
2021/05/10 11:09:49;;;;;;;1.30;0.50;;;;;;;19.53;55.63;96596.88;4992854;28;20083;-78
2021/05/10 11:12:52;;;;;;;0.60;0.40;;;;;;;19.22;57.31;96583.94;4996455;28;20025;-79
2021/05/10 11:15:42;;;;;;;2.65;0.50;;;;;;;19.65;56.68;96572.44;5006339;28;20107;-79
2021/05/10 11:18:08;;;;;;;0.77;0.55;;;;;;;19.90;55.59;96565.53;4989772;28;20038;-78
2021/05/10 11:20:41;;;;;;;0.40;0.40;;;;;;;19.98;54.75;96567.34;4995241;28;20048;-79
2021/05/10 11:23:25;;;;;;;1.55;0.50;;;;;;;19.96;54.87;96564.25;4996656;28;20492;-77
2021/05/10 11:25:52;;;;;;;1.52;0.47;;;;;;;20.09;54.02;96564.31;5006645;28;20026;-78
2021/05/10 11:28:41;;;;;;;1.05;0.45;;;;;;;19.67;55.32;96582.69;5007176;28;20025;-78
2021/05/10 11:31:08;;;;;;;0.52;0.30;;;;;;;20.05;54.27;96613.63;4998653;28;20041;-78
2021/05/10 11:33:52;;;;;;;1.52;0.40;;;;;;;19.59;55.67;96629.97;4996145;28;20116;-77
2021/05/10 11:36:21;;;;;;;0.50;0.40;;;;;;;19.35;56.22;96629.72;5010468;28;20033;-77
2021/05/10 11:38:54;;;;;;;1.27;0.40;;;;;;;19.27;56.42;96637.31;4982510;28;20059;-78
2021/05/10 11:41:29;;;;;;;2.08;0.30;;;;;;;19.54;55.43;96653.88;4991986;28;20500;-78
2021/05/10 11:43:59;;;;;;;1.58;0.32;;;;;;;19.80;55.78;96648.53;4988298;28;20038;-78